Time;durP1;ratioP1;P1;durP2;ratioP2;P2;SDS_P1;SDS_P2;PMS_P1;PMS_P2;Temp;Humidity;BMP_temperature;BMP_pressure;BME280_temperature;BME280_humidity;BME280_pressure;Samples;Min_cycle;Max_cycle;Signal;HPM_P1;HPM_P2
2021/09/09 00:00:33;;;;;;;467.12;334.30;;;;;;;;;;5150457;27;20046;-54
2021/09/09 00:03:03;;;;;;;469.23;330.50;;;;;;;;;;5150841;27;20035;-55
2021/09/09 00:05:31;;;;;;;464.37;334.42;;;;;;;;;;5150179;27;20020;-55
2021/09/09 00:08:00;;;;;;;462.85;333.98;;;;;;;;;;5150798;27;20019;-55
2021/09/09 00:10:29;;;;;;;460.33;331.87;;;;;;;;;;5150890;27;20067;-55
2021/09/09 00:12:58;;;;;;;460.08;328.48;;;;;;;;;;5150484;27;20023;-55
2021/09/09 00:15:26;;;;;;;450.25;325.02;;;;;;;;;;5148903;27;20035;-55
2021/09/09 00:17:56;;;;;;;452.75;327.05;;;;;;;;;;5151005;27;20031;-55
2021/09/09 00:20:24;;;;;;;451.37;326.85;;;;;;;;;;5149618;27;20423;-55
2021/09/09 00:22:52;;;;;;;443.67;324.80;;;;;;;;;;5150420;27;20118;-55
2021/09/09 00:25:22;;;;;;;445.77;323.95;;;;;;;;;;5150539;27;20421;-55
2021/09/09 00:27:55;;;;;;;449.40;328.17;;;;;;;;;;5150995;27;20054;-54
2021/09/09 00:30:24;;;;;;;447.63;328.55;;;;;;;;;;5150520;27;20042;-55
2021/09/09 00:33:08;;;;;;;451.67;331.55;;;;;;;;;;5150648;27;20004;-55
2021/09/09 00:35:38;;;;;;;445.85;323.87;;;;;;;;;;5149082;27;20031;-55
2021/09/09 00:38:06;;;;;;;440.08;318.80;;;;;;;;;;5150254;27;20031;-54
2021/09/09 00:40:34;;;;;;;433.85;315.92;;;;;;;;;;5150157;27;20030;-55
2021/09/09 00:43:03;;;;;;;433.95;315.92;;;;;;;;;;5150178;27;20066;-55
2021/09/09 00:45:31;;;;;;;437.62;320.95;;;;;;;;;;5149917;27;20020;-55
2021/09/09 00:48:00;;;;;;;442.15;320.45;;;;;;;;;;5150724;27;20039;-55
2021/09/09 00:50:28;;;;;;;438.27;319.10;;;;;;;;;;5149816;27;20042;-55
2021/09/09 00:52:56;;;;;;;440.88;321.23;;;;;;;;;;5147835;27;20026;-55
2021/09/09 00:55:25;;;;;;;435.77;322.58;;;;;;;;;;5149256;27;20034;-55
2021/09/09 00:57:53;;;;;;;435.08;320.23;;;;;;;;;;5149921;27;20038;-54
2021/09/09 01:00:22;;;;;;;436.40;319.87;;;;;;;;;;5148407;27;20488;-55
2021/09/09 01:02:50;;;;;;;422.60;316.27;;;;;;;;;;5147924;27;20054;-55
2021/09/09 01:05:19;;;;;;;412.10;309.77;;;;;;;;;;5150676;27;20042;-55
2021/09/09 01:07:47;;;;;;;417.33;309.90;;;;;;;;;;5150851;27;20067;-55
2021/09/09 01:10:15;;;;;;;415.75;309.08;;;;;;;;;;5148541;27;20041;-55
2021/09/09 01:12:44;;;;;;;410.95;308.55;;;;;;;;;;5149284;27;20031;-55
2021/09/09 01:15:12;;;;;;;417.35;311.33;;;;;;;;;;5149501;27;20019;-55
2021/09/09 01:17:41;;;;;;;419.27;311.92;;;;;;;;;;5148375;27;20349;-55
2021/09/09 01:20:10;;;;;;;416.88;309.25;;;;;;;;;;5147584;27;20416;-55
2021/09/09 01:22:39;;;;;;;411.40;302.70;;;;;;;;;;5149713;27;20033;-55
2021/09/09 01:25:08;;;;;;;420.00;311.60;;;;;;;;;;5149043;27;20027;-55
2021/09/09 01:27:37;;;;;;;422.45;311.25;;;;;;;;;;5150171;27;20368;-55
2021/09/09 01:30:05;;;;;;;420.40;311.00;;;;;;;;;;5150172;27;20020;-55
2021/09/09 01:32:34;;;;;;;420.55;312.08;;;;;;;;;;5149094;27;20033;-55
2021/09/09 01:35:02;;;;;;;419.90;311.62;;;;;;;;;;5147677;27;20437;-55
2021/09/09 01:37:31;;;;;;;417.65;312.83;;;;;;;;;;5146689;27;20035;-55
2021/09/09 01:40:00;;;;;;;418.05;309.90;;;;;;;;;;5144868;27;20448;-55
2021/09/09 01:42:29;;;;;;;414.15;307.30;;;;;;;;;;5147544;27;20741;-55
2021/09/09 01:44:57;;;;;;;423.52;314.90;;;;;;;;;;5150537;27;20020;-55
2021/09/09 01:47:26;;;;;;;420.67;315.92;;;;;;;;;;5148705;27;20685;-55
2021/09/09 01:49:54;;;;;;;415.00;310.02;;;;;;;;;;5150590;27;20062;-55
2021/09/09 01:52:23;;;;;;;412.98;309.70;;;;;;;;;;5146185;27;20754;-55
2021/09/09 01:54:51;;;;;;;418.50;309.35;;;;;;;;;;5146693;27;20039;-55
2021/09/09 01:57:19;;;;;;;412.95;308.02;;;;;;;;;;5148488;27;20055;-55
2021/09/09 01:59:56;;;;;;;417.65;307.55;;;;;;;;;;5149977;27;20061;-55
2021/09/09 02:02:24;;;;;;;418.23;309.05;;;;;;;;;;5148833;27;20065;-53
2021/09/09 02:04:53;;;;;;;416.02;310.08;;;;;;;;;;5152307;27;20111;-55
2021/09/09 02:07:21;;;;;;;409.40;305.20;;;;;;;;;;5150403;27;20075;-55
2021/09/09 02:09:50;;;;;;;413.20;305.90;;;;;;;;;;5151847;27;20067;-55
2021/09/09 02:12:18;;;;;;;414.98;310.00;;;;;;;;;;5150792;27;20054;-55
2021/09/09 02:14:46;;;;;;;416.30;312.67;;;;;;;;;;5149706;27;20058;-55
2021/09/09 02:17:14;;;;;;;416.77;311.12;;;;;;;;;;5150749;27;20020;-55
2021/09/09 02:19:43;;;;;;;417.02;310.60;;;;;;;;;;5152125;27;20033;-55
2021/09/09 02:22:11;;;;;;;414.85;309.40;;;;;;;;;;5151620;27;20032;-55
2021/09/09 02:24:45;;;;;;;416.88;309.80;;;;;;;;;;5151863;27;20024;-55
2021/09/09 02:27:17;;;;;;;418.52;311.25;;;;;;;;;;5151103;27;20074;-55
2021/09/09 02:29:45;;;;;;;417.58;312.17;;;;;;;;;;5152246;27;20027;-55
2021/09/09 02:32:14;;;;;;;413.40;307.48;;;;;;;;;;5151063;27;20023;-55
2021/09/09 02:34:42;;;;;;;417.08;311.08;;;;;;;;;;5151761;27;20109;-55
2021/09/09 02:37:10;;;;;;;414.83;309.58;;;;;;;;;;5150849;27;20020;-55
2021/09/09 02:39:42;;;;;;;414.27;310.42;;;;;;;;;;5151818;27;20460;-55
2021/09/09 02:42:10;;;;;;;415.58;312.35;;;;;;;;;;5151602;27;20022;-55
2021/09/09 02:44:39;;;;;;;417.75;312.02;;;;;;;;;;5151593;27;20041;-55
2021/09/09 02:47:07;;;;;;;416.98;313.00;;;;;;;;;;5149618;27;20050;-55
2021/09/09 02:49:35;;;;;;;418.23;311.37;;;;;;;;;;5151378;27;20095;-55
2021/09/09 02:52:04;;;;;;;417.48;311.87;;;;;;;;;;5149016;27;20043;-55
2021/09/09 02:54:32;;;;;;;422.10;311.58;;;;;;;;;;5151700;27;20051;-55
2021/09/09 02:57:01;;;;;;;412.33;307.70;;;;;;;;;;5151520;27;20020;-55
2021/09/09 02:59:29;;;;;;;416.55;309.62;;;;;;;;;;5149869;27;20417;-55
2021/09/09 03:01:58;;;;;;;415.60;310.00;;;;;;;;;;5149440;27;20464;-55
2021/09/09 03:04:26;;;;;;;413.33;308.95;;;;;;;;;;5149921;27;20348;-55
2021/09/09 03:06:55;;;;;;;412.17;309.90;;;;;;;;;;5151270;27;20061;-54
2021/09/09 03:09:23;;;;;;;410.58;309.95;;;;;;;;;;5149909;27;20056;-55
2021/09/09 03:11:51;;;;;;;410.90;308.35;;;;;;;;;;5147830;27;20027;-55
2021/09/09 03:14:20;;;;;;;411.55;311.02;;;;;;;;;;5145174;27;20051;-55
2021/09/09 03:16:48;;;;;;;411.10;308.30;;;;;;;;;;5145989;27;20034;-55
2021/09/09 03:19:16;;;;;;;407.80;308.05;;;;;;;;;;5145936;27;20439;-55
2021/09/09 03:21:45;;;;;;;410.75;310.27;;;;;;;;;;5148561;27;20071;-55
2021/09/09 03:24:13;;;;;;;411.23;309.60;;;;;;;;;;5147126;27;20065;-55
2021/09/09 03:26:41;;;;;;;409.65;306.55;;;;;;;;;;5151683;27;20020;-55
2021/09/09 03:29:10;;;;;;;412.35;306.85;;;;;;;;;;5149258;27;20024;-55
2021/09/09 03:31:39;;;;;;;411.80;309.37;;;;;;;;;;5151919;27;20503;-55
2021/09/09 03:34:07;;;;;;;409.87;308.08;;;;;;;;;;5150441;27;20028;-54
2021/09/09 03:36:35;;;;;;;409.55;308.67;;;;;;;;;;5151122;27;20493;-55
2021/09/09 03:39:04;;;;;;;409.95;307.60;;;;;;;;;;5151083;27;20448;-55
2021/09/09 03:41:32;;;;;;;410.17;310.33;;;;;;;;;;5150222;27;20015;-55
2021/09/09 03:44:00;;;;;;;406.37;306.08;;;;;;;;;;5150766;27;20028;-55
2021/09/09 03:46:30;;;;;;;406.83;305.55;;;;;;;;;;5150700;27;20543;-55
2021/09/09 03:48:59;;;;;;;407.08;307.52;;;;;;;;;;5150920;27;20854;-55
2021/09/09 03:51:28;;;;;;;413.12;311.08;;;;;;;;;;5150152;27;20039;-55
2021/09/09 03:53:56;;;;;;;415.00;313.30;;;;;;;;;;5150904;27;20340;-55
2021/09/09 03:56:24;;;;;;;408.87;306.20;;;;;;;;;;5148778;27;20058;-54
2021/09/09 03:58:53;;;;;;;407.90;307.77;;;;;;;;;;5149529;27;20055;-55
2021/09/09 04:01:21;;;;;;;402.70;307.12;;;;;;;;;;5149945;27;20066;-55
2021/09/09 04:03:50;;;;;;;403.00;304.92;;;;;;;;;;5149261;27;20027;-55
2021/09/09 04:06:21;;;;;;;405.48;308.45;;;;;;;;;;5150423;27;20030;-55
2021/09/09 04:08:50;;;;;;;408.00;310.92;;;;;;;;;;5150791;27;20075;-55
2021/09/09 04:11:18;;;;;;;409.27;309.85;;;;;;;;;;5148720;27;20384;-55
2021/09/09 04:13:46;;;;;;;406.25;307.15;;;;;;;;;;5146834;27;20019;-55
2021/09/09 04:16:15;;;;;;;411.23;309.83;;;;;;;;;;5150361;27;20122;-55
2021/09/09 04:18:43;;;;;;;411.02;308.73;;;;;;;;;;5150742;27;20036;-55
2021/09/09 04:21:11;;;;;;;409.87;309.83;;;;;;;;;;5149489;27;20782;-55
2021/09/09 04:23:40;;;;;;;406.77;307.00;;;;;;;;;;5148502;27;20381;-55
2021/09/09 04:26:08;;;;;;;405.42;305.60;;;;;;;;;;5148918;27;20031;-55
2021/09/09 04:28:36;;;;;;;410.83;309.73;;;;;;;;;;5149919;27;20067;-55
2021/09/09 04:31:04;;;;;;;409.37;308.45;;;;;;;;;;5149142;27;20117;-55
2021/09/09 04:33:33;;;;;;;410.63;312.80;;;;;;;;;;5151031;27;20066;-55
2021/09/09 04:36:02;;;;;;;411.55;309.62;;;;;;;;;;5151412;27;20020;-55
2021/09/09 04:38:40;;;;;;;412.12;309.23;;;;;;;;;;5150354;27;20408;-55
2021/09/09 04:41:09;;;;;;;414.65;314.30;;;;;;;;;;5149162;27;20054;-55
2021/09/09 04:43:37;;;;;;;415.05;314.85;;;;;;;;;;5149867;27;20381;-55
2021/09/09 04:46:05;;;;;;;415.52;313.15;;;;;;;;;;5149934;27;20019;-55
2021/09/09 04:48:34;;;;;;;413.90;310.98;;;;;;;;;;5150271;27;20016;-55
2021/09/09 04:51:02;;;;;;;415.73;314.95;;;;;;;;;;5149360;27;20071;-55
2021/09/09 04:53:31;;;;;;;412.10;309.90;;;;;;;;;;5149783;27;20015;-55
2021/09/09 04:55:59;;;;;;;410.65;310.35;;;;;;;;;;5149087;27;20043;-55
2021/09/09 04:58:27;;;;;;;414.55;316.15;;;;;;;;;;5150106;27;20019;-55
2021/09/09 05:00:56;;;;;;;412.40;310.45;;;;;;;;;;5149608;27;20404;-55
2021/09/09 05:03:24;;;;;;;406.30;307.15;;;;;;;;;;5150419;27;20443;-55
2021/09/09 05:05:53;;;;;;;415.65;312.17;;;;;;;;;;5150915;27;20049;-55
2021/09/09 05:08:21;;;;;;;407.48;310.65;;;;;;;;;;5149637;27;20020;-55
2021/09/09 05:10:49;;;;;;;410.95;311.85;;;;;;;;;;5151042;27;20055;-55
2021/09/09 05:13:17;;;;;;;420.02;318.10;;;;;;;;;;5149504;27;20020;-55
2021/09/09 05:15:46;;;;;;;418.95;316.17;;;;;;;;;;5149890;27;20020;-55
2021/09/09 05:18:14;;;;;;;415.50;316.12;;;;;;;;;;5150576;27;20095;-55
2021/09/09 05:20:42;;;;;;;413.87;313.73;;;;;;;;;;5152438;27;20024;-55
2021/09/09 05:23:11;;;;;;;414.83;315.23;;;;;;;;;;5151866;27;20019;-55
2021/09/09 05:25:39;;;;;;;427.60;322.10;;;;;;;;;;5151666;27;20372;-55
2021/09/09 05:28:07;;;;;;;427.80;320.95;;;;;;;;;;5152173;27;20071;-55
2021/09/09 05:30:35;;;;;;;429.02;320.52;;;;;;;;;;5151881;27;20036;-55
2021/09/09 05:33:04;;;;;;;402.40;307.05;;;;;;;;;;5151606;27;20042;-55
2021/09/09 05:35:32;;;;;;;390.17;301.77;;;;;;;;;;5152284;27;20020;-55
2021/09/09 05:38:01;;;;;;;406.02;313.02;;;;;;;;;;5151939;27;20063;-55
2021/09/09 05:40:29;;;;;;;403.60;314.95;;;;;;;;;;5152369;27;20067;-55
2021/09/09 05:42:58;;;;;;;398.77;309.05;;;;;;;;;;5150128;27;20459;-55
2021/09/09 05:45:26;;;;;;;398.50;309.42;;;;;;;;;;5151211;27;20091;-55
2021/09/09 05:47:55;;;;;;;397.45;311.15;;;;;;;;;;5152034;27;20060;-55
2021/09/09 05:50:23;;;;;;;399.90;306.92;;;;;;;;;;5150149;27;20027;-55
2021/09/09 05:52:51;;;;;;;397.80;306.70;;;;;;;;;;5151320;27;20428;-55
2021/09/09 05:55:20;;;;;;;396.95;303.70;;;;;;;;;;5151526;27;20032;-55
2021/09/09 05:57:48;;;;;;;396.33;305.85;;;;;;;;;;5152001;27;20045;-55
2021/09/09 06:00:16;;;;;;;390.87;299.58;;;;;;;;;;5151660;27;20023;-55
2021/09/09 06:02:47;;;;;;;413.23;318.73;;;;;;;;;;5151340;27;20028;-55
2021/09/09 06:05:17;;;;;;;413.17;318.10;;;;;;;;;;5149561;27;20052;-54
2021/09/09 06:07:45;;;;;;;407.55;311.98;;;;;;;;;;5151819;27;20063;-55
2021/09/09 06:10:14;;;;;;;399.00;310.25;;;;;;;;;;5148897;27;20058;-55
2021/09/09 06:12:42;;;;;;;405.73;310.25;;;;;;;;;;5152111;27;20066;-55
2021/09/09 06:15:10;;;;;;;396.75;306.27;;;;;;;;;;5149955;27;20086;-55
2021/09/09 06:17:39;;;;;;;394.73;305.87;;;;;;;;;;5150974;27;20397;-56
2021/09/09 06:20:07;;;;;;;395.67;304.67;;;;;;;;;;5151370;27;20025;-54
2021/09/09 06:22:36;;;;;;;396.73;305.00;;;;;;;;;;5151006;27;20056;-55
2021/09/09 06:25:05;;;;;;;397.05;305.70;;;;;;;;;;5149516;27;20463;-54
2021/09/09 06:27:34;;;;;;;397.92;303.90;;;;;;;;;;5149844;27;20059;-55
2021/09/09 06:30:03;;;;;;;398.05;300.30;;;;;;;;;;5149669;27;20389;-55
2021/09/09 06:32:31;;;;;;;392.00;296.92;;;;;;;;;;5152167;27;20400;-55
2021/09/09 06:34:59;;;;;;;391.48;298.95;;;;;;;;;;5148892;27;20036;-55
2021/09/09 06:37:29;;;;;;;386.50;294.95;;;;;;;;;;5148350;27;20031;-55
2021/09/09 06:39:57;;;;;;;403.45;302.50;;;;;;;;;;5149589;27;20039;-55
2021/09/09 06:42:26;;;;;;;405.58;302.02;;;;;;;;;;5150384;27;20067;-55
2021/09/09 06:44:55;;;;;;;401.17;303.05;;;;;;;;;;5148919;27;20083;-54
2021/09/09 06:47:23;;;;;;;396.33;301.62;;;;;;;;;;5150395;27;20035;-54
2021/09/09 06:49:51;;;;;;;389.80;294.08;;;;;;;;;;5148015;27;20067;-55
2021/09/09 06:52:20;;;;;;;263.20;158.80;;;;;;;;;;5147859;27;20031;-54
2021/09/09 06:54:48;;;;;;;272.12;162.95;;;;;;;;;;5147905;27;20322;-55
2021/09/09 06:57:16;;;;;;;431.15;287.58;;;;;;;;;;5148854;27;20043;-55
2021/09/09 06:59:45;;;;;;;426.05;286.20;;;;;;;;;;5148232;27;20034;-55
2021/09/09 07:02:13;;;;;;;431.58;288.45;;;;;;;;;;5149628;27;20364;-54
2021/09/09 07:04:42;;;;;;;411.05;264.92;;;;;;;;;;5150211;27;20055;-55
2021/09/09 07:07:10;;;;;;;399.42;250.65;;;;;;;;;;5149182;27;20050;-55
2021/09/09 07:09:42;;;;;;;383.52;236.55;;;;;;;;;;5149851;27;20012;-55
2021/09/09 07:12:10;;;;;;;392.75;241.70;;;;;;;;;;5150176;27;20028;-54
2021/09/09 07:14:38;;;;;;;389.30;243.32;;;;;;;;;;5148573;27;20134;-55
2021/09/09 07:17:07;;;;;;;427.48;263.00;;;;;;;;;;5150105;27;20467;-54
2021/09/09 07:19:35;;;;;;;431.00;268.48;;;;;;;;;;5151267;27;20052;-54
2021/09/09 07:22:04;;;;;;;439.13;266.98;;;;;;;;;;5151154;27;20039;-55
2021/09/09 07:24:32;;;;;;;437.65;271.27;;;;;;;;;;5150023;27;20038;-55
2021/09/09 07:27:00;;;;;;;407.95;265.23;;;;;;;;;;5151513;27;20419;-54
2021/09/09 07:29:29;;;;;;;392.70;267.60;;;;;;;;;;5150842;27;20392;-55
2021/09/09 07:31:57;;;;;;;400.55;270.92;;;;;;;;;;5149725;27;20020;-55
2021/09/09 07:34:26;;;;;;;408.40;283.25;;;;;;;;;;5147167;27;20098;-55
2021/09/09 07:36:54;;;;;;;450.85;304.65;;;;;;;;;;5149678;27;20155;-55
2021/09/09 07:39:23;;;;;;;463.00;306.42;;;;;;;;;;5149992;27;20020;-55
2021/09/09 07:41:51;;;;;;;434.35;249.88;;;;;;;;;;5147998;27;20530;-55
2021/09/09 07:44:20;;;;;;;481.00;305.52;;;;;;;;;;5149683;27;20042;-55
2021/09/09 07:46:48;;;;;;;494.05;313.67;;;;;;;;;;5148761;27;20042;-55
2021/09/09 07:49:17;;;;;;;502.90;316.70;;;;;;;;;;5149884;27;20028;-55
2021/09/09 07:51:48;;;;;;;515.35;332.23;;;;;;;;;;5149626;27;20055;-55
2021/09/09 07:54:17;;;;;;;501.30;385.45;;;;;;;;;;5150321;27;20405;-55
2021/09/09 07:56:45;;;;;;;456.10;292.87;;;;;;;;;;5149014;27;20027;-55
2021/09/09 07:59:13;;;;;;;462.23;297.33;;;;;;;;;;5150779;27;20027;-55
2021/09/09 08:01:44;;;;;;;527.50;415.85;;;;;;;;;;5149231;27;20472;-55
2021/09/09 08:04:16;;;;;;;452.88;317.75;;;;;;;;;;5149644;27;20016;-55
2021/09/09 08:06:44;;;;;;;395.45;299.50;;;;;;;;;;5151219;27;20055;-55
2021/09/09 08:09:13;;;;;;;6.07;3.12;;;;;;;;;;5151212;27;20480;-55
2021/09/09 08:11:41;;;;;;;6.35;1.60;;;;;;;;;;5149778;27;20019;-56
2021/09/09 08:14:09;;;;;;;4.25;1.20;;;;;;;;;;5150901;27;20032;-55
2021/09/09 08:16:38;;;;;;;5.37;1.05;;;;;;;;;;5149821;27;20035;-56
2021/09/09 08:19:06;;;;;;;8.00;1.20;;;;;;;;;;5149731;27;20076;-56
2021/09/09 08:21:35;;;;;;;6.22;0.95;;;;;;;;;;5149760;27;20059;-56
2021/09/09 08:24:03;;;;;;;5.05;1.20;;;;;;;;;;5149535;27;20090;-56
2021/09/09 08:26:31;;;;;;;4.53;0.88;;;;;;;;;;5149796;27;20016;-56
2021/09/09 08:29:00;;;;;;;2.75;0.70;;;;;;;;;;5149364;27;20435;-56
2021/09/09 08:31:28;;;;;;;5.68;1.00;;;;;;;;;;5150864;27;20046;-56
2021/09/09 08:33:57;;;;;;;4.40;1.08;;;;;;;;;;5151381;27;20030;-56
2021/09/09 08:36:26;;;;;;;4.80;0.90;;;;;;;;;;5148603;27;20641;-56
2021/09/09 08:38:54;;;;;;;6.07;1.25;;;;;;;;;;5149980;27;20023;-56
2021/09/09 08:41:23;;;;;;;4.43;0.95;;;;;;;;;;5148736;27;20038;-56
2021/09/09 08:43:51;;;;;;;3.60;1.10;;;;;;;;;;5150809;27;20055;-56
2021/09/09 08:46:19;;;;;;;5.00;1.20;;;;;;;;;;5130214;27;20681;-55
2021/09/09 08:48:49;;;;;;;3.95;1.00;;;;;;;;;;5151036;27;20059;-56
2021/09/09 08:51:18;;;;;;;5.32;1.00;;;;;;;;;;5149853;27;20008;-56
2021/09/09 08:53:47;;;;;;;7.45;1.00;;;;;;;;;;5149134;27;20110;-56
2021/09/09 08:56:15;;;;;;;4.87;0.88;;;;;;;;;;5150208;27;20028;-56
2021/09/09 08:58:44;;;;;;;5.28;1.10;;;;;;;;;;5151471;27;20434;-56
2021/09/09 09:01:13;;;;;;;4.78;0.93;;;;;;;;;;5150687;27;20071;-56
2021/09/09 09:03:45;;;;;;;5.45;1.10;;;;;;;;;;5149964;27;20067;-56
2021/09/09 09:06:26;;;;;;;5.22;1.20;;;;;;;;;;5150754;27;20035;-56
2021/09/09 09:08:54;;;;;;;6.03;1.10;;;;;;;;;;5150887;27;20074;-56
2021/09/09 09:11:24;;;;;;;5.37;1.00;;;;;;;;;;5151588;27;20036;-56
2021/09/09 09:13:52;;;;;;;6.60;1.33;;;;;;;;;;5149938;27;20039;-56
2021/09/09 09:16:21;;;;;;;5.72;1.15;;;;;;;;;;5149314;27;20038;-56
2021/09/09 09:18:50;;;;;;;8.43;1.52;;;;;;;;;;5151084;27;20024;-56
2021/09/09 09:21:20;;;;;;;3.28;0.95;;;;;;;;;;5151330;27;20027;-56
2021/09/09 09:23:48;;;;;;;4.35;1.12;;;;;;;;;;5151466;27;20522;-56
2021/09/09 09:26:25;;;;;;;4.53;1.20;;;;;;;;;;5150666;27;20020;-56
2021/09/09 09:28:55;;;;;;;4.25;1.10;;;;;;;;;;5151014;27;20030;-56
2021/09/09 09:31:25;;;;;;;3.80;0.95;;;;;;;;;;5149248;27;20023;-56
2021/09/09 09:33:55;;;;;;;5.30;0.93;;;;;;;;;;5151143;27;20075;-56
2021/09/09 09:36:24;;;;;;;3.25;0.95;;;;;;;;;;5150885;27;20063;-56
2021/09/09 09:38:57;;;;;;;;;;;;;;;;;;5151588;27;20039;-56
2021/09/09 09:41:25;;;;;;;6.93;1.10;;;;;;;;;;5148577;27;20364;-56
2021/09/09 09:44:03;;;;;;;5.15;0.90;;;;;;;;;;5151309;27;20739;-56
2021/09/09 09:46:33;;;;;;;6.22;1.10;;;;;;;;;;5150220;27;20051;-56
2021/09/09 09:49:18;;;;;;;4.28;1.23;;;;;;;;;;5150151;27;20071;-56
2021/09/09 09:51:49;;;;;;;4.32;1.30;;;;;;;;;;5151433;27;20008;-56
2021/09/09 09:54:19;;;;;;;8.55;1.10;;;;;;;;;;5150813;27;20008;-56
2021/09/09 09:56:48;;;;;;;5.18;1.17;;;;;;;;;;5151262;27;20574;-56
2021/09/09 09:59:17;;;;;;;5.40;1.35;;;;;;;;;;5150030;27;20015;-56
2021/09/09 10:01:45;;;;;;;5.75;1.30;;;;;;;;;;5150485;27;20027;-56
2021/09/09 10:04:16;;;;;;;7.85;1.42;;;;;;;;;;5151220;27;20038;-56
2021/09/09 10:06:46;;;;;;;6.80;1.35;;;;;;;;;;5152417;27;20083;-56
2021/09/09 10:09:15;;;;;;;6.50;1.40;;;;;;;;;;5151284;27;20032;-56
2021/09/09 10:11:44;;;;;;;7.93;1.33;;;;;;;;;;5151975;27;20061;-56
2021/09/09 10:14:20;;;;;;;7.40;1.58;;;;;;;;;;5151422;27;20035;-56
2021/09/09 10:16:49;;;;;;;6.53;1.30;;;;;;;;;;5150618;27;20054;-56
2021/09/09 10:19:24;;;;;;;7.22;1.30;;;;;;;;;;5150885;27;20040;-56
2021/09/09 10:22:03;;;;;;;7.43;1.52;;;;;;;;;;5152442;27;20058;-56
2021/09/09 10:24:33;;;;;;;4.32;1.00;;;;;;;;;;5152492;27;20033;-56
2021/09/09 10:27:20;;;;;;;5.32;1.20;;;;;;;;;;5151012;27;20012;-56
2021/09/09 10:30:02;;;;;;;8.13;1.10;;;;;;;;;;5151762;27;20634;-56
2021/09/09 10:32:37;;;;;;;4.77;1.13;;;;;;;;;;5152057;27;20015;-56
2021/09/09 10:35:18;;;;;;;5.18;1.08;;;;;;;;;;5150726;27;20105;-56
2021/09/09 10:37:47;;;;;;;7.30;0.98;;;;;;;;;;5150607;27;20102;-56
2021/09/09 10:40:35;;;;;;;4.28;0.90;;;;;;;;;;5150354;27;20027;-56
2021/09/09 10:43:15;;;;;;;4.40;1.08;;;;;;;;;;5151451;27;20456;-56
2021/09/09 10:45:44;;;;;;;3.40;0.82;;;;;;;;;;5151146;27;20067;-56
2021/09/09 10:48:16;;;;;;;4.57;1.20;;;;;;;;;;5149890;27;20047;-56
2021/09/09 10:50:59;;;;;;;4.87;0.98;;;;;;;;;;5151494;27;20059;-56
2021/09/09 10:53:35;;;;;;;8.27;0.90;;;;;;;;;;5151848;27;20016;-56
2021/09/09 10:56:08;;;;;;;4.57;1.10;;;;;;;;;;5150576;27;20012;-56
2021/09/09 10:58:37;;;;;;;4.43;1.17;;;;;;;;;;5151224;27;20023;-56
2021/09/09 11:01:06;;;;;;;5.07;0.90;;;;;;;;;;5151190;27;20043;-56
2021/09/09 11:03:50;;;;;;;7.80;1.40;;;;;;;;;;5150416;27;20027;-56
2021/09/09 11:06:19;;;;;;;4.15;1.08;;;;;;;;;;5149938;27;20054;-56
2021/09/09 11:08:50;;;;;;;5.30;1.10;;;;;;;;;;5149935;27;20134;-56
2021/09/09 11:11:27;;;;;;;13.57;1.37;;;;;;;;;;5152251;27;20024;-56
2021/09/09 11:14:05;;;;;;;7.78;1.08;;;;;;;;;;5151412;27;20011;-56
2021/09/09 11:16:34;;;;;;;3.15;0.90;;;;;;;;;;5150336;27;20408;-56
2021/09/09 11:19:03;;;;;;;6.18;1.10;;;;;;;;;;5148827;27;20028;-56
2021/09/09 11:21:41;;;;;;;6.47;1.10;;;;;;;;;;5151810;27;20040;-56
2021/09/09 11:24:11;;;;;;;4.43;1.20;;;;;;;;;;5150829;27;20039;-56
2021/09/09 11:26:40;;;;;;;4.72;1.02;;;;;;;;;;5151290;27;20034;-56
2021/09/09 11:29:09;;;;;;;14.15;1.55;;;;;;;;;;5150210;27;20042;-56
2021/09/09 11:31:44;;;;;;;6.25;1.10;;;;;;;;;;5151020;27;20075;-56
2021/09/09 11:34:13;;;;;;;6.80;1.10;;;;;;;;;;5149206;27;20395;-56
2021/09/09 11:36:43;;;;;;;5.60;1.00;;;;;;;;;;5149741;27;20075;-56
2021/09/09 11:39:16;;;;;;;6.62;1.20;;;;;;;;;;5149963;27;20356;-55
2021/09/09 11:41:45;;;;;;;30.85;2.42;;;;;;;;;;5150871;27;20058;-56
2021/09/09 11:44:27;;;;;;;5.85;1.15;;;;;;;;;;5150261;27;20011;-56
2021/09/09 11:46:57;;;;;;;6.10;0.93;;;;;;;;;;5148891;27;20452;-56
2021/09/09 11:49:26;;;;;;;6.95;1.23;;;;;;;;;;5149827;27;20041;-56
2021/09/09 11:51:55;;;;;;;5.43;1.20;;;;;;;;;;5148720;27;20037;-56
2021/09/09 11:54:25;;;;;;;4.20;0.80;;;;;;;;;;5149433;27;20070;-56
2021/09/09 11:57:10;;;;;;;4.57;0.93;;;;;;;;;;5149263;27;20066;-56
2021/09/09 11:59:47;;;;;;;4.20;1.17;;;;;;;;;;5150616;27;20054;-56
2021/09/09 12:02:17;;;;;;;7.25;1.05;;;;;;;;;;5149788;27;20047;-56
2021/09/09 12:04:46;;;;;;;5.25;0.98;;;;;;;;;;5150953;27;20015;-56
2021/09/09 12:07:21;;;;;;;7.68;1.15;;;;;;;;;;5150888;27;20057;-56
2021/09/09 12:09:54;;;;;;;5.28;1.15;;;;;;;;;;5151035;27;20039;-56
2021/09/09 12:12:22;;;;;;;4.93;1.10;;;;;;;;;;5151334;27;20015;-56
2021/09/09 12:14:58;;;;;;;7.70;0.82;;;;;;;;;;5150564;27;20028;-56
2021/09/09 12:17:27;;;;;;;6.18;0.80;;;;;;;;;;5150553;27;20087;-56
2021/09/09 12:19:56;;;;;;;12.10;1.50;;;;;;;;;;5148889;27;20083;-55
2021/09/09 12:22:42;;;;;;;7.22;1.08;;;;;;;;;;5148774;27;20771;-56
2021/09/09 12:25:20;;;;;;;19.27;2.12;;;;;;;;;;5150154;27;20030;-55
2021/09/09 12:27:57;;;;;;;4.97;1.08;;;;;;;;;;5150099;27;20364;-55
2021/09/09 12:30:46;;;;;;;9.48;1.33;;;;;;;;;;5148139;27;20034;-55
2021/09/09 12:33:22;;;;;;;7.25;0.90;;;;;;;;;;5150234;27;20022;-56
2021/09/09 12:36:05;;;;;;;3.72;0.80;;;;;;;;;;5149930;27;20018;-56
2021/09/09 12:38:54;;;;;;;6.03;1.60;;;;;;;;;;5151407;27;20076;-55
2021/09/09 12:41:23;;;;;;;3.95;1.00;;;;;;;;;;5139003;27;20031;-55
2021/09/09 12:43:53;;;;;;;4.90;1.00;;;;;;;;;;5150159;27;20024;-56
2021/09/09 12:46:34;;;;;;;6.65;1.23;;;;;;;;;;5151106;27;20035;-56
2021/09/09 12:49:07;;;;;;;10.65;1.17;;;;;;;;;;5150071;27;20011;-55
2021/09/09 12:51:37;;;;;;;7.53;1.23;;;;;;;;;;5150376;27;20004;-55
2021/09/09 12:54:05;;;;;;;4.03;0.95;;;;;;;;;;5150628;27;20446;-55
2021/09/09 12:56:33;;;;;;;4.85;1.00;;;;;;;;;;5151367;27;20067;-55
2021/09/09 12:59:02;;;;;;;5.70;0.93;;;;;;;;;;5150439;27;20024;-55
2021/09/09 13:01:31;;;;;;;6.07;0.80;;;;;;;;;;5150954;27;20313;-55
2021/09/09 13:03:59;;;;;;;7.95;1.10;;;;;;;;;;5149968;27;20062;-55
2021/09/09 13:06:29;;;;;;;2.78;0.65;;;;;;;;;;5148644;27;20601;-55
2021/09/09 13:08:57;;;;;;;5.55;1.08;;;;;;;;;;5149560;27;20048;-55
2021/09/09 13:11:25;;;;;;;8.35;1.40;;;;;;;;;;5149844;27;20029;-56
2021/09/09 13:13:53;;;;;;;5.82;1.12;;;;;;;;;;5149616;27;20019;-55
2021/09/09 13:16:22;;;;;;;5.32;1.10;;;;;;;;;;5149765;27;20027;-55
2021/09/09 13:18:50;;;;;;;2.78;0.75;;;;;;;;;;5149669;27;20032;-55
2021/09/09 13:21:25;;;;;;;4.70;1.10;;;;;;;;;;5149316;27;20515;-55
2021/09/09 13:23:53;;;;;;;7.35;1.42;;;;;;;;;;5151017;27;20011;-55
2021/09/09 13:26:22;;;;;;;6.07;1.02;;;;;;;;;;5149036;27;20020;-55
2021/09/09 13:28:50;;;;;;;7.10;1.10;;;;;;;;;;5150394;27;20385;-56
2021/09/09 13:31:23;;;;;;;7.75;0.80;;;;;;;;;;5147055;27;20396;-55
2021/09/09 13:33:52;;;;;;;26.20;2.08;;;;;;;;;;5149247;27;20004;-55
2021/09/09 13:36:21;;;;;;;5.80;0.95;;;;;;;;;;5149911;27;20032;-55
2021/09/09 13:38:49;;;;;;;8.30;1.00;;;;;;;;;;5149175;27;20397;-56
2021/09/09 13:41:17;;;;;;;4.90;0.88;;;;;;;;;;5148310;27;20019;-55
2021/09/09 13:43:46;;;;;;;3.70;0.70;;;;;;;;;;5150233;27;20071;-55
2021/09/09 13:46:14;;;;;;;6.72;0.80;;;;;;;;;;5150111;27;20062;-55
2021/09/09 13:48:42;;;;;;;3.95;1.00;;;;;;;;;;5149293;27;20076;-55
2021/09/09 13:51:11;;;;;;;3.75;0.95;;;;;;;;;;5151630;27;20031;-55
2021/09/09 13:53:39;;;;;;;5.20;0.98;;;;;;;;;;5150998;27;20417;-55
2021/09/09 13:56:09;;;;;;;5.37;0.90;;;;;;;;;;5151413;27;20020;-55
2021/09/09 13:58:40;;;;;;;4.15;1.00;;;;;;;;;;5151168;27;20086;-55
2021/09/09 14:01:08;;;;;;;3.17;1.00;;;;;;;;;;5148742;27;20169;-55
2021/09/09 14:03:37;;;;;;;4.60;0.75;;;;;;;;;;5150524;27;20389;-55
2021/09/09 14:06:06;;;;;;;6.55;1.12;;;;;;;;;;5151321;27;20019;-56
2021/09/09 14:08:34;;;;;;;3.25;0.80;;;;;;;;;;5151936;27;20369;-55
2021/09/09 14:11:03;;;;;;;6.82;1.17;;;;;;;;;;5150814;27;20067;-55
2021/09/09 14:13:31;;;;;;;4.55;0.80;;;;;;;;;;5148922;27;20414;-55
2021/09/09 14:16:00;;;;;;;5.57;0.75;;;;;;;;;;5151162;27;20082;-55
2021/09/09 14:18:28;;;;;;;3.65;0.80;;;;;;;;;;5150327;27;20039;-55
2021/09/09 14:20:56;;;;;;;5.28;0.90;;;;;;;;;;5148968;27;20494;-55
2021/09/09 14:23:25;;;;;;;4.12;0.80;;;;;;;;;;5149329;27;20024;-55
2021/09/09 14:25:54;;;;;;;3.78;0.85;;;;;;;;;;5150600;27;20734;-55
2021/09/09 14:28:22;;;;;;;4.10;0.70;;;;;;;;;;5149272;27;20038;-55